createdAt,value
2023-04-02T00:01:36.987Z,4.70
2023-04-02T00:04:09.567Z,4.27
2023-04-02T00:06:44.743Z,4.43
2023-04-02T00:09:14.217Z,4.20
2023-04-02T00:11:44.607Z,4.53
2023-04-02T00:14:37.100Z,4.10
2023-04-02T00:17:05.648Z,4.07
2023-04-02T00:19:38.326Z,3.97
2023-04-02T00:22:09.653Z,3.77
2023-04-02T00:24:39.125Z,4.00
2023-04-02T00:27:10.336Z,4.13
2023-04-02T00:29:36.961Z,3.40
2023-04-02T00:32:04.669Z,3.70
2023-04-02T00:34:38.024Z,4.10
2023-04-02T00:37:04.852Z,3.80
2023-04-02T00:39:47.147Z,3.97
2023-04-02T00:42:13.648Z,3.87
2023-04-02T00:44:43.702Z,3.93
2023-04-02T00:47:37.400Z,4.00
2023-04-02T00:50:14.457Z,3.77
2023-04-02T00:52:43.010Z,3.83
2023-04-02T00:55:20.976Z,3.40
2023-04-02T00:57:49.409Z,3.60
2023-04-02T01:00:27.384Z,3.33
2023-04-02T01:03:16.449Z,3.83
2023-04-02T01:06:02.796Z,4.10
2023-04-02T01:08:52.148Z,3.50
2023-04-02T01:11:28.404Z,3.50
2023-04-02T01:14:07.317Z,3.50
2023-04-02T01:16:54.089Z,3.23
2023-04-02T01:19:39.538Z,3.30
2023-04-02T01:22:14.630Z,3.23
2023-04-02T01:24:43.926Z,4.13
2023-04-02T01:27:23.818Z,3.10
2023-04-02T01:29:56.678Z,3.20
2023-04-02T01:32:26.267Z,2.90
2023-04-02T01:34:54.576Z,2.90
2023-04-02T01:37:56.121Z,2.57
2023-04-02T01:40:50.765Z,2.53
2023-04-02T01:43:29.745Z,2.60
2023-04-02T01:45:59.455Z,2.60
2023-04-02T01:48:30.434Z,2.80
2023-04-02T01:51:00.558Z,2.67
2023-04-02T01:53:31.356Z,2.60
2023-04-02T01:56:02.921Z,2.90
2023-04-02T01:58:31.876Z,2.20
2023-04-02T02:01:04.196Z,2.43
2023-04-02T02:03:33.842Z,2.30
2023-04-02T02:06:03.246Z,2.60
2023-04-02T02:08:39.016Z,2.70
2023-04-02T02:11:11.816Z,2.43
2023-04-02T02:13:39.125Z,2.23
2023-04-02T02:16:12.673Z,2.30
2023-04-02T02:18:39.493Z,2.33
2023-04-02T02:21:09.504Z,2.63
2023-04-02T02:23:36.874Z,2.23
2023-04-02T02:26:06.590Z,2.30
2023-04-02T02:28:40.453Z,2.30
2023-04-02T02:31:17.536Z,2.33
2023-04-02T02:33:51.073Z,2.17
2023-04-02T02:36:33.714Z,2.77
2023-04-02T02:39:12.644Z,1.90
2023-04-02T02:41:54.735Z,2.20
2023-04-02T02:44:26.096Z,2.20
2023-04-02T02:47:02.229Z,2.17
2023-04-02T02:49:32.978Z,2.10
2023-04-02T02:52:17.429Z,2.20
2023-04-02T02:55:14.529Z,2.40
2023-04-02T02:57:56.300Z,2.40
2023-04-02T03:00:26.764Z,2.17
2023-04-02T03:02:56.495Z,1.90
2023-04-02T03:05:28.496Z,2.13
2023-04-02T03:08:01.971Z,2.33
2023-04-02T03:10:54.351Z,2.10
2023-04-02T03:13:32.992Z,1.80
2023-04-02T03:16:11.288Z,2.00
2023-04-02T03:18:45.573Z,2.10
2023-04-02T03:21:28.232Z,2.20
2023-04-02T03:24:01.276Z,1.93
2023-04-02T03:26:38.315Z,1.77
2023-04-02T03:29:16.370Z,2.10
2023-04-02T03:31:50.472Z,1.90
2023-04-02T03:34:25.970Z,2.07
2023-04-02T03:37:46.981Z,1.87
2023-04-02T03:40:26.173Z,2.37
2023-04-02T03:42:58.302Z,2.27
2023-04-02T03:45:32.692Z,2.23
2023-04-02T03:48:12.137Z,1.80
2023-04-02T03:50:58.861Z,1.90
2023-04-02T03:53:27.439Z,1.90
2023-04-02T03:55:56.473Z,1.87
2023-04-02T03:58:39.435Z,1.60
2023-04-02T04:01:20.214Z,2.10
2023-04-02T04:03:53.089Z,1.90
2023-04-02T04:06:32.011Z,2.03
2023-04-02T04:09:08.765Z,1.67
2023-04-02T04:11:39.527Z,1.93
2023-04-02T04:14:16.633Z,1.97
2023-04-02T04:16:53.556Z,1.77
2023-04-02T04:19:29.957Z,2.77
2023-04-02T04:22:19.035Z,1.80
2023-04-02T04:24:49.313Z,1.67
2023-04-02T04:27:33.409Z,1.60
2023-04-02T04:30:06.192Z,2.20
2023-04-02T04:32:42.657Z,1.63
2023-04-02T04:35:35.086Z,1.70
2023-04-02T04:38:27.458Z,1.73
2023-04-02T04:41:15.927Z,1.63
2023-04-02T04:43:51.673Z,1.77
2023-04-02T04:46:40.657Z,2.17
2023-04-02T04:49:38.460Z,1.90
2023-04-02T04:52:14.164Z,2.07
2023-04-02T04:54:42.242Z,1.60
2023-04-02T04:57:42.570Z,1.70
2023-04-02T05:00:19.575Z,2.00
2023-04-02T05:02:53.627Z,1.73
2023-04-02T05:05:27.390Z,1.70
2023-04-02T05:08:10.971Z,1.70
2023-04-02T05:10:49.684Z,1.73
2023-04-02T05:13:36.067Z,1.77
2023-04-02T05:16:26.241Z,1.60
2023-04-02T05:18:59.793Z,1.60
2023-04-02T05:21:38.652Z,1.63
2023-04-02T05:24:35.931Z,1.70
2023-04-02T05:27:15.984Z,1.70
2023-04-02T05:29:48.872Z,1.57
2023-04-02T05:32:41.165Z,1.50
2023-04-02T05:35:19.155Z,1.53
2023-04-02T05:37:46.784Z,1.90
2023-04-02T05:40:21.267Z,1.80
2023-04-02T05:42:52.874Z,1.60
2023-04-02T05:45:27.728Z,1.97
2023-04-02T05:48:02.104Z,1.93
2023-04-02T05:50:40.296Z,1.70
2023-04-02T05:53:19.561Z,1.50
2023-04-02T05:56:08.821Z,1.70
2023-04-02T05:58:43.954Z,1.50
2023-04-02T06:01:47.560Z,1.27
2023-04-02T06:04:24.051Z,1.50
2023-04-02T06:06:58.583Z,2.00
2023-04-02T06:09:39.765Z,1.63
2023-04-02T06:12:22.460Z,1.20
2023-04-02T06:14:49.314Z,1.63
2023-04-02T06:17:18.641Z,1.60
2023-04-02T06:19:47.709Z,1.77
2023-04-02T06:22:36.827Z,1.47
2023-04-02T06:25:20.731Z,1.83
2023-04-02T06:27:51.597Z,1.63
2023-04-02T06:30:28.446Z,1.80
2023-04-02T06:32:56.576Z,1.30
2023-04-02T06:35:24.404Z,1.67
2023-04-02T06:38:04.311Z,1.67
2023-04-02T06:40:49.603Z,1.80
2023-04-02T06:43:39.521Z,1.83
2023-04-02T06:46:42.699Z,1.60
2023-04-02T06:49:22.649Z,1.80
2023-04-02T06:51:54.532Z,1.87
2023-04-02T06:54:21.345Z,1.73
2023-04-02T06:56:56.330Z,1.60
2023-04-02T06:59:30.925Z,1.90
2023-04-02T07:02:03.697Z,1.90
2023-04-02T07:04:31.049Z,1.90
2023-04-02T07:06:57.500Z,1.77
2023-04-02T07:09:27.363Z,1.67
2023-04-02T07:11:57.241Z,1.50
2023-04-02T07:14:24.511Z,1.57
2023-04-02T07:16:51.628Z,1.40
2023-04-02T07:19:21.072Z,1.60
2023-04-02T07:21:50.533Z,1.87
2023-04-02T07:24:19.132Z,1.70
2023-04-02T07:26:48.083Z,1.40
2023-04-02T07:29:16.225Z,1.80
2023-04-02T07:31:43.047Z,1.67
2023-04-02T07:34:10.391Z,1.50
2023-04-02T07:36:37.310Z,1.60
2023-04-02T07:39:04.559Z,1.50
2023-04-02T07:41:31.572Z,1.83
2023-04-02T07:43:58.227Z,1.70
2023-04-02T07:46:26.275Z,1.50
2023-04-02T07:48:52.732Z,1.50
2023-04-02T07:51:25.113Z,2.40
2023-04-02T07:53:55.923Z,1.40
2023-04-02T07:56:24.238Z,1.57
2023-04-02T07:58:50.987Z,1.50
2023-04-02T08:01:26.302Z,1.60
2023-04-02T08:03:54.750Z,1.70
2023-04-02T08:06:21.940Z,1.60
2023-04-02T08:08:48.433Z,1.73
2023-04-02T08:11:15.190Z,1.57
2023-04-02T08:13:41.777Z,2.07
2023-04-02T08:16:09.642Z,1.70
2023-04-02T08:18:36.512Z,1.40
2023-04-02T08:21:06.731Z,1.50
2023-04-02T08:23:33.352Z,1.50
2023-04-02T08:25:59.794Z,1.60
2023-04-02T08:28:26.434Z,1.40
2023-04-02T08:30:53.092Z,1.63
2023-04-02T08:33:20.020Z,1.43
2023-04-02T08:35:47.879Z,1.63
2023-04-02T08:38:16.780Z,1.30
2023-04-02T08:40:46.757Z,1.67
2023-04-02T08:43:17.907Z,2.10
2023-04-02T08:46:19.332Z,1.70
2023-04-02T08:48:52.897Z,1.73
2023-04-02T08:51:24.188Z,1.30
2023-04-02T08:53:52.624Z,1.67
2023-04-02T08:56:25.625Z,1.50
2023-04-02T08:59:03.770Z,1.43
2023-04-02T09:01:47.261Z,1.50
2023-04-02T09:04:18.762Z,1.70
2023-04-02T09:06:46.235Z,1.60
2023-04-02T09:09:14.762Z,1.10
2023-04-02T09:12:04.564Z,1.70
2023-04-02T09:14:44.961Z,1.50
2023-04-02T09:17:21.171Z,1.30
2023-04-02T09:19:58.723Z,1.60
2023-04-02T09:22:25.336Z,1.40
2023-04-02T09:25:04.281Z,1.40
2023-04-02T09:27:41.725Z,1.83
2023-04-02T09:30:38.946Z,1.87
2023-04-02T09:33:09.902Z,1.90
2023-04-02T09:35:54.488Z,1.37
2023-04-02T09:38:31.726Z,1.80
2023-04-02T09:41:06.030Z,1.20
2023-04-02T09:43:38.080Z,1.73
2023-04-02T09:46:13.512Z,1.50
2023-04-02T09:48:55.280Z,1.60
2023-04-02T09:51:27.013Z,1.53
2023-04-02T09:54:02.616Z,2.00
2023-04-02T09:56:36.683Z,1.50
2023-04-02T09:59:16.865Z,1.70
2023-04-02T10:01:57.318Z,1.43
2023-04-02T10:04:47.437Z,1.47
2023-04-02T10:07:38.515Z,1.90
2023-04-02T10:10:27.821Z,2.03
2023-04-02T10:13:01.823Z,1.83
2023-04-02T10:15:45.942Z,1.80
2023-04-02T10:18:46.726Z,1.80
2023-04-02T10:21:18.271Z,1.70
2023-04-02T10:23:45.011Z,1.60
2023-04-02T10:26:46.773Z,1.80
2023-04-02T10:29:47.619Z,2.07
2023-04-02T10:32:23.391Z,1.50
2023-04-02T10:35:11.335Z,1.43
2023-04-02T10:37:50.121Z,1.67
2023-04-02T10:40:19.760Z,1.83
2023-04-02T10:43:05.336Z,1.43
2023-04-02T10:45:54.486Z,1.57
2023-04-02T10:48:32.786Z,1.37
2023-04-02T10:51:17.500Z,2.00
2023-04-02T10:53:51.367Z,1.80
2023-04-02T10:56:17.765Z,1.70
2023-04-02T10:58:59.272Z,1.87
2023-04-02T11:01:29.705Z,2.33
2023-04-02T11:04:17.317Z,4.90
2023-04-02T11:07:07.058Z,1.60
2023-04-02T11:09:44.435Z,1.57
2023-04-02T11:12:23.341Z,1.80
2023-04-02T11:14:50.972Z,1.60
2023-04-02T11:17:18.390Z,1.80
2023-04-02T11:19:44.872Z,1.60
2023-04-02T11:22:16.955Z,1.60
2023-04-02T11:24:48.004Z,1.70
2023-04-02T11:27:23.571Z,1.67
2023-04-02T11:30:01.405Z,1.70
2023-04-02T11:32:42.834Z,1.70
2023-04-02T11:35:26.914Z,1.70
2023-04-02T11:37:57.117Z,1.43
2023-04-02T11:40:47.333Z,1.50
2023-04-02T11:43:32.642Z,1.40
2023-04-02T11:46:04.539Z,1.33
2023-04-02T11:48:36.382Z,1.63
2023-04-02T11:51:21.425Z,1.80
2023-04-02T11:53:50.589Z,1.50
2023-04-02T11:56:21.177Z,1.70
2023-04-02T11:58:54.671Z,1.60
2023-04-02T12:01:33.328Z,1.40
2023-04-02T12:04:52.094Z,1.90
2023-04-02T12:07:27.921Z,1.47
2023-04-02T12:09:57.847Z,1.73
2023-04-02T12:12:24.217Z,1.60
2023-04-02T12:14:56.337Z,1.70
2023-04-02T12:17:33.780Z,1.57
2023-04-02T12:20:08.076Z,1.60
2023-04-02T12:22:38.008Z,1.50
2023-04-02T12:25:32.568Z,1.43
2023-04-02T12:28:14.370Z,1.30
2023-04-02T12:30:41.922Z,1.77
2023-04-02T12:33:39.043Z,2.10
2023-04-02T12:36:14.399Z,1.53
2023-04-02T12:38:47.837Z,1.50
2023-04-02T12:41:36.546Z,1.30
2023-04-02T12:44:05.013Z,1.47
2023-04-02T12:46:34.658Z,1.30
2023-04-02T12:49:24.580Z,1.60
2023-04-02T12:51:51.935Z,1.40
2023-04-02T12:54:20.510Z,1.60
2023-04-02T12:56:48.533Z,1.37
2023-04-02T12:59:28.379Z,1.10
2023-04-02T13:01:59.685Z,1.67
2023-04-02T13:04:26.941Z,1.60
2023-04-02T13:06:58.413Z,1.60
2023-04-02T13:09:30.073Z,1.40
2023-04-02T13:11:56.949Z,1.57
2023-04-02T13:14:24.638Z,1.47
2023-04-02T13:16:51.300Z,1.33
2023-04-02T13:19:17.631Z,1.60
2023-04-02T13:21:45.252Z,1.40
2023-04-02T13:24:23.603Z,1.23
2023-04-02T13:26:53.644Z,1.10
2023-04-02T13:29:27.016Z,1.20
2023-04-02T13:31:57.111Z,1.10
2023-04-02T13:34:23.696Z,1.57
2023-04-02T13:36:50.332Z,1.43
2023-04-02T13:39:16.860Z,1.43
2023-04-02T13:41:45.310Z,1.10
2023-04-02T13:44:27.256Z,1.30
2023-04-02T13:46:54.646Z,1.20
2023-04-02T13:49:21.588Z,1.20
2023-04-02T13:51:54.032Z,1.10
2023-04-02T13:54:27.495Z,1.00
2023-04-02T13:56:55.945Z,1.00
2023-04-02T13:59:22.696Z,1.37
2023-04-02T14:01:52.403Z,1.10
2023-04-02T14:04:24.587Z,1.10
2023-04-02T14:07:25.862Z,1.30
2023-04-02T14:10:07.587Z,1.20
2023-04-02T14:12:46.216Z,1.27
2023-04-02T14:15:35.010Z,1.00
2023-04-02T14:18:13.870Z,1.23
2023-04-02T14:20:58.581Z,1.13
2023-04-02T14:23:46.884Z,1.13
2023-04-02T14:26:39.558Z,1.20
2023-04-02T14:29:16.168Z,1.00
2023-04-02T14:31:59.649Z,1.30
2023-04-02T14:35:03.747Z,1.20
2023-04-02T14:38:07.787Z,0.90
2023-04-02T14:41:22.072Z,0.90
2023-04-02T14:44:10.550Z,1.30
2023-04-02T14:46:38.215Z,0.90
2023-04-02T14:49:11.429Z,1.00
2023-04-02T14:51:41.521Z,1.20
2023-04-02T14:54:21.211Z,1.10
2023-04-02T14:56:52.447Z,1.10
2023-04-02T14:59:46.450Z,1.00
2023-04-02T15:02:18.834Z,1.00
2023-04-02T15:05:01.202Z,1.03
2023-04-02T15:07:39.821Z,1.20
2023-04-02T15:10:21.946Z,1.00
2023-04-02T15:12:49.565Z,1.10
2023-04-02T15:15:40.925Z,1.10
2023-04-02T15:18:15.863Z,0.93
2023-04-02T15:21:15.996Z,1.00
2023-04-02T15:23:54.892Z,1.10
2023-04-02T15:26:32.151Z,1.10
2023-04-02T15:29:28.894Z,1.10
2023-04-02T15:32:05.758Z,1.30
2023-04-02T15:34:39.806Z,1.20
2023-04-02T15:37:23.427Z,1.20
2023-04-02T15:40:18.304Z,1.10
2023-04-02T15:42:56.995Z,1.37
2023-04-02T15:45:37.171Z,1.10
2023-04-02T15:48:11.644Z,0.90
2023-04-02T15:50:47.419Z,1.10
2023-04-02T15:53:39.176Z,1.30
2023-04-02T15:56:36.104Z,1.40
2023-04-02T15:59:40.097Z,1.10
2023-04-02T16:02:48.153Z,1.30
2023-04-02T16:05:36.574Z,1.30
2023-04-02T16:08:27.950Z,1.30
2023-04-02T16:10:54.740Z,1.50
2023-04-02T16:13:28.606Z,1.00
2023-04-02T16:16:22.456Z,1.20
2023-04-02T16:19:15.967Z,1.47
2023-04-02T16:21:51.598Z,1.00
2023-04-02T16:24:18.044Z,1.20
2023-04-02T16:26:52.293Z,1.33
2023-04-02T16:29:53.926Z,1.43
2023-04-02T16:32:49.268Z,1.00
2023-04-02T16:38:30.461Z,1.40
2023-04-02T16:41:27.636Z,1.60
2023-04-02T16:44:06.284Z,1.60
2023-04-02T16:46:57.397Z,1.60
2023-04-02T16:49:37.490Z,1.50
2023-04-02T16:52:38.477Z,1.30
2023-04-02T16:55:14.197Z,1.20
2023-04-02T16:57:57.310Z,1.37
2023-04-02T17:00:32.696Z,1.00
2023-04-02T17:03:25.642Z,1.70
2023-04-02T17:06:05.740Z,1.50
2023-04-02T17:08:43.809Z,1.30
2023-04-02T17:11:21.430Z,1.13
2023-04-02T17:13:56.561Z,1.30
2023-04-02T17:16:41.266Z,1.00
2023-04-02T17:19:13.315Z,1.10
2023-04-02T17:21:44.208Z,1.10
2023-04-02T17:24:14.188Z,1.30
2023-04-02T17:26:43.433Z,1.20
2023-04-02T17:29:17.210Z,1.43
2023-04-02T17:31:45.781Z,1.30
2023-04-02T17:34:15.085Z,1.27
2023-04-02T17:37:04.426Z,1.30
2023-04-02T17:39:42.941Z,1.53
2023-04-02T17:42:44.478Z,1.37
2023-04-02T17:45:28.117Z,1.10
2023-04-02T17:48:17.940Z,1.23
2023-04-02T17:50:53.504Z,1.10
2023-04-02T17:53:36.787Z,1.20
2023-04-02T17:56:18.667Z,2.13
2023-04-02T17:59:16.827Z,2.93
2023-04-02T18:01:49.942Z,1.67
2023-04-02T18:04:25.898Z,1.77
2023-04-02T18:07:12.083Z,1.60
2023-04-02T18:09:50.510Z,1.40
2023-04-02T18:12:39.858Z,1.67
2023-04-02T18:15:24.391Z,1.33
2023-04-02T18:18:18.753Z,1.53
2023-04-02T18:21:03.182Z,1.50
2023-04-02T18:24:10.163Z,1.30
2023-04-02T18:26:55.184Z,1.40
2023-04-02T18:29:42.053Z,1.83
2023-04-02T18:32:42.532Z,1.50
2023-04-02T18:35:16.920Z,1.87
2023-04-02T18:37:58.567Z,2.20
2023-04-02T18:40:34.549Z,1.80
2023-04-02T18:43:18.899Z,2.03
2023-04-02T18:46:14.203Z,1.37
2023-04-02T18:48:52.225Z,1.30
2023-04-02T18:51:22.402Z,1.33
2023-04-02T18:53:54.375Z,1.50
2023-04-02T18:56:23.626Z,1.20
2023-04-02T18:59:12.254Z,1.20
2023-04-02T19:01:46.493Z,1.63
2023-04-02T19:04:18.950Z,1.30
2023-04-02T19:06:52.211Z,1.40
2023-04-02T19:09:30.954Z,1.60
2023-04-02T19:11:57.399Z,1.27
2023-04-02T19:14:24.186Z,1.40
2023-04-02T19:16:53.552Z,1.53
2023-04-02T19:19:23.203Z,1.50
2023-04-02T19:22:08.544Z,1.70
2023-04-02T19:24:57.397Z,1.37
2023-04-02T19:27:53.159Z,1.30
2023-04-02T19:30:35.720Z,1.60
2023-04-02T19:33:28.105Z,1.20
2023-04-02T19:36:05.601Z,1.50
2023-04-02T19:38:47.300Z,1.50
2023-04-02T19:41:39.674Z,1.80
2023-04-02T19:44:12.621Z,1.57
2023-04-02T19:46:39.980Z,1.63
2023-04-02T19:49:22.754Z,1.37
2023-04-02T19:51:49.923Z,1.40
2023-04-02T19:54:17.941Z,1.40
2023-04-02T19:56:44.620Z,1.50
2023-04-02T19:59:18.086Z,1.60
2023-04-02T20:01:46.455Z,1.40
2023-04-02T20:04:14.200Z,1.80
2023-04-02T20:06:40.797Z,1.50
2023-04-02T20:09:08.525Z,1.60
2023-04-02T20:11:37.357Z,1.60
2023-04-02T20:14:04.300Z,1.70
2023-04-02T20:16:30.901Z,1.70
2023-04-02T20:18:57.605Z,1.60
2023-04-02T20:21:24.201Z,2.17
2023-04-02T20:23:54.636Z,1.60
2023-04-02T20:26:22.462Z,1.67
2023-04-02T20:28:48.970Z,1.60
2023-04-02T20:31:17.532Z,2.30
2023-04-02T20:33:44.405Z,2.10
2023-04-02T20:36:16.220Z,1.70
2023-04-02T20:38:43.537Z,1.40
2023-04-02T20:41:10.268Z,1.20
2023-04-02T20:43:40.204Z,1.50
2023-04-02T20:46:10.104Z,1.70
2023-04-02T20:48:37.563Z,1.50
2023-04-02T20:51:06.192Z,1.60
2023-04-02T20:53:34.519Z,1.70
2023-04-02T20:56:06.979Z,1.70
2023-04-02T20:58:35.592Z,1.70
2023-04-02T21:01:16.733Z,1.83
2023-04-02T21:03:43.729Z,1.90
2023-04-02T21:06:18.787Z,1.77
2023-04-02T21:08:45.535Z,1.60
2023-04-02T21:11:12.403Z,1.77
2023-04-02T21:13:42.074Z,1.97
2023-04-02T21:16:19.096Z,1.53
2023-04-02T21:18:46.809Z,1.80
2023-04-02T21:21:14.569Z,1.70
2023-04-02T21:23:42.845Z,1.97
2023-04-02T21:26:12.802Z,2.10
2023-04-02T21:28:41.121Z,1.50
2023-04-02T21:31:17.618Z,1.83
2023-04-02T21:33:46.576Z,1.60
2023-04-02T21:36:16.062Z,1.67
2023-04-02T21:38:51.825Z,1.60
2023-04-02T21:41:24.075Z,1.37
2023-04-02T21:43:51.320Z,1.50
2023-04-02T21:46:19.832Z,1.73
2023-04-02T21:48:46.644Z,1.60
2023-04-02T21:51:15.903Z,1.70
2023-04-02T21:53:43.060Z,1.43
2023-04-02T21:56:17.016Z,1.53
2023-04-02T21:58:45.092Z,1.63
2023-04-02T22:01:23.812Z,1.83
2023-04-02T22:03:53.764Z,1.73
2023-04-02T22:06:21.536Z,2.00
2023-04-02T22:08:53.242Z,1.70
2023-04-02T22:11:22.695Z,1.97
2023-04-02T22:13:49.953Z,1.60
2023-04-02T22:16:22.440Z,1.63
2023-04-02T22:18:51.009Z,1.70
2023-04-02T22:21:19.542Z,1.40
2023-04-02T22:23:46.945Z,1.60
2023-04-02T22:26:15.814Z,1.57
2023-04-02T22:28:42.446Z,1.40
2023-04-02T22:31:15.205Z,1.63
2023-04-02T22:33:42.661Z,1.80
2023-04-02T22:36:09.596Z,1.73
2023-04-02T22:38:36.892Z,1.70
2023-04-02T22:41:14.300Z,1.50
2023-04-02T22:43:43.768Z,1.77
2023-04-02T22:46:11.916Z,1.77
2023-04-02T22:48:41.248Z,1.63
2023-04-02T22:51:09.607Z,1.67
2023-04-02T22:53:36.772Z,1.43
2023-04-02T22:56:26.345Z,1.67
2023-04-02T22:58:53.057Z,2.10
2023-04-02T23:01:23.795Z,1.70
2023-04-02T23:03:54.726Z,1.87
2023-04-02T23:06:22.407Z,1.40
2023-04-02T23:08:48.936Z,1.50
2023-04-02T23:11:18.583Z,1.77
2023-04-02T23:13:47.226Z,1.50
2023-04-02T23:16:15.362Z,1.83
2023-04-02T23:18:42.810Z,1.80
2023-04-02T23:21:09.897Z,1.93
2023-04-02T23:23:37.671Z,1.70
2023-04-02T23:26:22.352Z,1.70
2023-04-02T23:28:50.274Z,2.00
2023-04-02T23:31:22.796Z,2.13
2023-04-02T23:33:50.552Z,1.77
2023-04-02T23:36:28.867Z,1.60
2023-04-02T23:38:59.599Z,1.50
2023-04-02T23:41:29.451Z,1.47
2023-04-02T23:43:56.715Z,1.60
2023-04-02T23:46:24.372Z,1.67
2023-04-02T23:48:51.651Z,2.00
2023-04-02T23:51:18.634Z,1.90
2023-04-02T23:53:45.180Z,1.50
2023-04-02T23:56:12.004Z,2.10
2023-04-02T23:58:38.718Z,1.90
